Time,TemperatureF,DewpointF,PressureIn,WindDirection,WindDirectionDegrees,WindSpeedMPH,WindSpeedGustMPH,Humidity,HourlyPrecipIn,Conditions,Clouds,dailyrainin,SoftwareType,DateUTC
2013-04-02 00:00:00,33.4,21.4,28.82,North,0,5.8,5.8,61,0.00,CLR,SKC,0.02,WeatherDisplay:10.37,2013-04-02 04:00:00,
2013-04-02 00:01:00,33.4,21.4,28.82,West,270,8.1,8.1,61,0.00,RA,SKC,0.00,WeatherDisplay:10.37,2013-04-02 04:01:00,
2013-04-02 00:02:00,33.4,21.4,28.82,West,270,8.1,8.1,61,0.00,RA,SKC,0.00,WeatherDisplay:10.37,2013-04-02 04:02:00,
2013-04-02 00:07:00,33.4,21.4,28.82,West,270,5.8,5.8,61,0.00,RA,SKC,0.00,WeatherDisplay:10.37,2013-04-02 04:07:00,
2013-04-02 00:12:00,33.3,20.9,28.82,NNE,12,12.7,12.7,60,0.00,CLR,SKC,0.00,WeatherDisplay:10.37,2013-04-02 04:12:00,
2013-04-02 00:17:00,33.1,20.7,28.82,North,0,11.5,11.5,60,0.00,CLR,SKC,0.00,WeatherDisplay:10.37,2013-04-02 04:17:00,
2013-04-02 00:22:00,32.9,20.5,28.83,North,0,15.0,15.0,60,0.00,CLR,SKC,0.00,WeatherDisplay:10.37,2013-04-02 04:22:00,
2013-04-02 00:27:00,32.7,20.4,28.82,North,0,11.5,11.5,60,0.00,CLR,SKC,0.00,WeatherDisplay:10.37,2013-04-02 04:27:00,
2013-04-02 00:32:00,32.5,20.6,28.83,WNW,292,4.6,4.6,61,0.00,CLR,SKC,0.00,WeatherDisplay:10.37,2013-04-02 04:32:00,
2013-04-02 00:37:00,32.4,20.4,28.83,North,1,10.4,10.4,61,0.00,CLR,SKC,0.00,WeatherDisplay:10.37,2013-04-02 04:37:00,
2013-04-02 00:42:00,32.2,20.2,28.83,North,0,5.8,5.8,61,0.00,CLR,SKC,0.00,WeatherDisplay:10.37,2013-04-02 04:42:00,
2013-04-02 00:47:00,31.8,20.6,28.83,NNE,15,4.6,4.6,63,0.00,CLR,SKC,0.00,WeatherDisplay:10.37,2013-04-02 04:47:00,
2013-04-02 00:52:00,31.8,20.6,28.83,South,180,10.4,10.4,63,0.00,CLR,SKC,0.00,WeatherDisplay:10.37,2013-04-02 04:52:00,
2013-04-02 00:57:00,31.6,20.5,28.83,NNE,14,8.1,8.1,63,0.00,CLR,SKC,0.00,WeatherDisplay:10.37,2013-04-02 04:57:00,
2013-04-02 01:02:00,31.6,20.5,28.83,North,0,5.8,5.8,63,0.00,CLR,SKC,0.00,WeatherDisplay:10.37,2013-04-02 05:02:00,
2013-04-02 01:07:00,31.6,20.5,28.83,North,0,5.8,5.8,63,0.00,CLR,SKC,0.00,WeatherDisplay:10.37,2013-04-02 05:07:00,
2013-04-02 01:13:00,31.1,20.3,28.83,South,180,4.6,4.6,64,0.00,CLR,SKC,0.00,WeatherDisplay:10.37,2013-04-02 05:13:00,
2013-04-02 01:18:00,30.7,20.4,28.83,South,180,3.5,3.5,65,0.00,CLR,SKC,0.00,WeatherDisplay:10.37,2013-04-02 05:18:00,
2013-04-02 01:23:00,30.6,20.2,28.83,North,0,4.6,4.6,65,0.00,CLR,SKC,0.00,WeatherDisplay:10.37,2013-04-02 05:23:00,
2013-04-02 01:28:00,30.6,20.2,28.83,South,180,5.8,5.8,65,0.00,CLR,SKC,0.00,WeatherDisplay:10.37,2013-04-02 05:28:00,
2013-04-02 01:33:00,30.6,20.2,28.83,West,270,8.1,8.1,65,0.00,CLR,SKC,0.00,WeatherDisplay:10.37,2013-04-02 05:33:00,
2013-04-02 01:38:00,30.6,20.2,28.84,South,180,3.5,3.5,65,0.00,CLR,SKC,0.00,WeatherDisplay:10.37,2013-04-02 05:38:00,
2013-04-02 01:43:00,30.4,20.0,28.84,North,8,6.9,6.9,65,0.00,CLR,SKC,0.00,WeatherDisplay:10.37,2013-04-02 05:43:00,
2013-04-02 01:48:00,30.6,20.2,28.83,NW,315,8.1,8.1,65,0.00,CLR,SKC,0.00,WeatherDisplay:10.37,2013-04-02 05:48:00,
2013-04-02 01:53:00,30.6,20.2,28.84,North,1,6.9,6.9,65,0.00,CLR,SKC,0.00,WeatherDisplay:10.37,2013-04-02 05:53:00,
2013-04-02 01:58:00,30.6,19.8,28.83,North,0,10.4,10.4,64,0.00,CLR,SKC,0.00,WeatherDisplay:10.37,2013-04-02 05:58:00,
2013-04-02 02:03:00,30.6,20.2,28.83,South,180,4.6,4.6,65,0.00,CLR,SKC,0.00,WeatherDisplay:10.37,2013-04-02 06:03:00,
2013-04-02 02:08:00,30.2,19.8,28.83,South,180,4.6,4.6,65,0.00,CLR,SKC,0.00,WeatherDisplay:10.37,2013-04-02 06:08:00,
2013-04-02 02:13:00,30.2,20.2,28.83,South,180,6.9,6.9,66,0.00,CLR,SKC,0.00,WeatherDisplay:10.37,2013-04-02 06:13:00,
2013-04-02 02:18:00,30.0,20.0,28.83,West,270,5.8,5.8,66,0.00,CLR,SKC,0.00,WeatherDisplay:10.37,2013-04-02 06:18:00,
2013-04-02 02:23:00,30.0,20.0,28.83,NE,45,5.8,5.8,66,0.00,CLR,SKC,0.00,WeatherDisplay:10.37,2013-04-02 06:23:00,
2013-04-02 02:28:00,29.8,19.9,28.83,West,270,9.2,9.2,66,0.00,CLR,SKC,0.00,WeatherDisplay:10.37,2013-04-02 06:28:00,
2013-04-02 02:33:00,29.7,20.0,28.83,North,1,4.6,4.6,67,0.00,CLR,SKC,0.00,WeatherDisplay:10.37,2013-04-02 06:33:00,
2013-04-02 02:38:00,29.5,19.9,28.84,South,180,5.8,5.8,67,0.00,CLR,SKC,0.00,WeatherDisplay:10.37,2013-04-02 06:38:00,
2013-04-02 02:43:00,29.5,19.9,28.83,North,0,5.8,5.8,67,0.00,CLR,SKC,0.00,WeatherDisplay:10.37,2013-04-02 06:43:00,
2013-04-02 02:48:00,29.5,20.2,28.83,North,0,8.1,8.1,68,0.00,CLR,SKC,0.00,WeatherDisplay:10.37,2013-04-02 06:48:00,
2013-04-02 02:53:00,29.5,19.9,28.83,South,180,8.1,8.1,67,0.00,CLR,SKC,0.00,WeatherDisplay:10.37,2013-04-02 06:53:00,
2013-04-02 02:58:00,29.5,19.9,28.83,North,0,6.9,6.9,67,0.00,CLR,SKC,0.00,WeatherDisplay:10.37,2013-04-02 06:58:00,
2013-04-02 03:03:00,29.5,19.9,28.83,North,0,5.8,5.8,67,0.00,CLR,SKC,0.00,WeatherDisplay:10.37,2013-04-02 07:03:00,
2013-04-02 03:08:00,29.3,20.0,28.83,North,0,5.8,5.8,68,0.00,CLR,SKC,0.00,WeatherDisplay:10.37,2013-04-02 07:08:00,
2013-04-02 03:13:00,29.1,19.9,28.83,North,0,4.5,4.5,68,0.00,CLR,SKC,0.00,WeatherDisplay:10.37,2013-04-02 07:13:00,
2013-04-02 03:18:00,29.1,19.9,28.83,North,0,10.4,10.4,68,0.00,CLR,SKC,0.00,WeatherDisplay:10.37,2013-04-02 07:18:00,
2013-04-02 03:23:00,29.1,19.9,28.83,North,0,5.8,5.8,68,0.00,CLR,SKC,0.00,WeatherDisplay:10.37,2013-04-02 07:23:00,
2013-04-02 03:28:00,28.8,19.9,28.83,North,0,4.6,4.6,69,0.00,CLR,SKC,0.00,WeatherDisplay:10.37,2013-04-02 07:28:00,
2013-04-02 03:33:00,28.8,19.9,28.83,North,0,5.8,5.8,69,0.00,CLR,SKC,0.00,WeatherDisplay:10.37,2013-04-02 07:33:00,
2013-04-02 03:38:00,28.6,19.7,28.83,North,0,5.8,5.8,69,0.00,CLR,SKC,0.00,WeatherDisplay:10.37,2013-04-02 07:38:00,
2013-04-02 03:43:00,28.2,19.7,28.84,North,0,4.6,4.6,70,0.00,CLR,SKC,0.00,WeatherDisplay:10.37,2013-04-02 07:43:00,
2013-04-02 03:48:00,28.0,19.8,28.83,South,180,3.5,3.5,71,0.00,CLR,SKC,0.00,WeatherDisplay:10.37,2013-04-02 07:48:00,
2013-04-02 03:53:00,28.2,20.0,28.84,North,0,4.6,4.6,71,0.00,CLR,SKC,0.00,WeatherDisplay:10.37,2013-04-02 07:53:00,
2013-04-02 03:58:00,28.0,20.2,28.84,North,8,4.6,4.6,72,0.00,CLR,SKC,0.00,WeatherDisplay:10.37,2013-04-02 07:58:00,
2013-04-02 04:03:00,28.0,20.2,28.83,North,0,6.9,6.9,72,0.00,CLR,SKC,0.00,WeatherDisplay:10.37,2013-04-02 08:03:00,
2013-04-02 04:08:00,28.2,20.7,28.83,North,0,6.9,6.9,73,0.00,CLR,SKC,0.00,WeatherDisplay:10.37,2013-04-02 08:08:00,
2013-04-02 04:13:00,28.0,20.5,28.83,South,180,5.8,5.8,73,0.00,CLR,SKC,0.00,WeatherDisplay:10.37,2013-04-02 08:13:00,
2013-04-02 04:18:00,28.0,20.5,28.84,South,180,8.1,8.1,73,0.00,CLR,SKC,0.00,WeatherDisplay:10.37,2013-04-02 08:18:00,
2013-04-02 04:24:00,28.0,20.8,28.84,North,8,8.1,8.1,74,0.00,CLR,SKC,0.00,WeatherDisplay:10.37,2013-04-02 08:24:00,
2013-04-02 04:29:00,28.0,20.8,28.84,North,0,8.1,8.1,74,0.00,CLR,SKC,0.00,WeatherDisplay:10.37,2013-04-02 08:29:00,
2013-04-02 04:34:00,28.0,20.8,28.85,South,180,10.4,10.4,74,0.00,CLR,SKC,0.00,WeatherDisplay:10.37,2013-04-02 08:34:00,
2013-04-02 04:39:00,28.0,20.8,28.84,North,0,6.9,6.9,74,0.00,CLR,SKC,0.00,WeatherDisplay:10.37,2013-04-02 08:39:00,
2013-04-02 04:44:00,28.0,21.1,28.85,North,0,6.9,6.9,75,0.00,CLR,SKC,0.00,WeatherDisplay:10.37,2013-04-02 08:44:00,
2013-04-02 04:49:00,28.0,21.4,28.85,West,270,9.2,9.2,76,0.00,CLR,SKC,0.00,WeatherDisplay:10.37,2013-04-02 08:49:00,
2013-04-02 04:54:00,28.0,21.1,28.84,North,1,12.7,12.7,75,0.00,CLR,SKC,0.00,WeatherDisplay:10.37,2013-04-02 08:54:00,
2013-04-02 04:59:00,27.9,21.3,28.85,North,0,8.1,8.1,76,0.00,CLR,SKC,0.00,WeatherDisplay:10.37,2013-04-02 08:59:00,
2013-04-02 05:04:00,27.9,21.3,28.85,North,0,8.1,8.1,76,0.00,CLR,SKC,0.00,WeatherDisplay:10.37,2013-04-02 09:04:00,
2013-04-02 05:09:00,27.9,21.3,28.85,South,180,8.1,8.1,76,0.00,CLR,SKC,0.00,WeatherDisplay:10.37,2013-04-02 09:09:00,
2013-04-02 05:14:00,27.7,21.1,28.85,West,270,5.8,5.8,76,0.00,CLR,SKC,0.00,WeatherDisplay:10.37,2013-04-02 09:14:00,
2013-04-02 05:19:00,27.5,21.2,28.86,North,2,6.9,6.9,77,0.00,CLR,SKC,0.00,WeatherDisplay:10.37,2013-04-02 09:19:00,
2013-04-02 05:24:00,27.5,21.2,28.85,NNE,12,10.4,10.4,77,0.00,CLR,SKC,0.00,WeatherDisplay:10.37,2013-04-02 09:24:00,
2013-04-02 05:29:00,27.5,21.2,28.85,NNE,13,6.9,6.9,77,0.00,CLR,SKC,0.00,WeatherDisplay:10.37,2013-04-02 09:29:00,
2013-04-02 05:34:00,27.5,21.2,28.86,North,0,9.2,9.2,77,0.00,CLR,SKC,0.00,WeatherDisplay:10.37,2013-04-02 09:34:00,
2013-04-02 05:39:00,27.5,21.2,28.86,West,270,9.2,9.2,77,0.00,CLR,SKC,0.00,WeatherDisplay:10.37,2013-04-02 09:39:00,
2013-04-02 05:44:00,27.3,21.1,28.86,West,270,10.4,10.4,77,0.00,CLR,SKC,0.00,WeatherDisplay:10.37,2013-04-02 09:44:00,
2013-04-02 05:49:00,27.1,21.2,28.86,North,1,11.5,11.5,78,0.00,CLR,SKC,0.00,WeatherDisplay:10.37,2013-04-02 09:49:00,
2013-04-02 05:54:00,27.0,21.0,28.86,North,0,4.6,4.6,78,0.00,CLR,SKC,0.00,WeatherDisplay:10.37,2013-04-02 09:54:00,
2013-04-02 05:59:00,27.0,21.0,28.87,North,0,6.9,6.9,78,0.00,CLR,SKC,0.00,WeatherDisplay:10.37,2013-04-02 09:59:00,
2013-04-02 06:04:00,27.0,21.0,28.87,North,0,3.5,3.5,78,0.00,CLR,SKC,0.00,WeatherDisplay:10.37,2013-04-02 10:04:00,
2013-04-02 06:09:00,26.6,21.0,28.87,North,0,4.6,4.6,79,0.00,CLR,SKC,0.00,WeatherDisplay:10.37,2013-04-02 10:09:00,
2013-04-02 06:14:00,26.6,21.3,28.87,North,0,5.8,5.8,80,0.00,CLR,SKC,0.00,WeatherDisplay:10.37,2013-04-02 10:14:00,
2013-04-02 06:19:00,26.4,21.1,28.88,North,0,4.6,4.6,80,0.00,CLR,SKC,0.00,WeatherDisplay:10.37,2013-04-02 10:19:00,
2013-04-02 06:24:00,26.4,21.7,28.87,North,0,9.2,9.2,82,0.00,CLR,SKC,0.00,WeatherDisplay:10.37,2013-04-02 10:24:00,
2013-04-02 06:29:00,26.2,21.8,28.88,North,0,10.4,10.4,83,0.00,CLR,SKC,0.00,WeatherDisplay:10.37,2013-04-02 10:29:00,
2013-04-02 06:34:00,26.2,22.1,28.88,North,0,5.8,5.8,84,0.00,CLR,SKC,0.00,WeatherDisplay:10.37,2013-04-02 10:34:00,
2013-04-02 06:39:00,26.2,22.1,28.88,NNE,16,8.1,8.1,84,0.00,CLR,SKC,0.00,WeatherDisplay:10.37,2013-04-02 10:39:00,
2013-04-02 06:44:00,26.1,21.9,28.89,NW,315,8.1,8.1,84,0.00,CLR,SKC,0.00,WeatherDisplay:10.37,2013-04-02 10:44:00,
2013-04-02 06:49:00,26.2,22.1,28.89,North,0,8.1,8.1,84,0.00,CLR,SKC,0.00,WeatherDisplay:10.37,2013-04-02 10:49:00,
2013-04-02 06:54:00,26.1,21.9,28.89,North,0,5.8,5.8,84,0.00,CLR,SKC,0.00,WeatherDisplay:10.37,2013-04-02 10:54:00,
2013-04-02 06:59:00,26.1,21.9,28.89,North,0,8.1,8.1,84,0.00,CLR,SKC,0.00,WeatherDisplay:10.37,2013-04-02 10:59:00,
2013-04-02 07:04:00,26.1,21.9,28.89,North,0,6.9,6.9,84,0.00,CLR,SKC,0.00,WeatherDisplay:10.37,2013-04-02 11:04:00,
2013-04-02 07:09:00,26.1,21.9,28.90,North,0,6.9,6.9,84,0.00,CLR,SKC,0.00,WeatherDisplay:10.37,2013-04-02 11:09:00,
2013-04-02 07:14:00,26.1,21.9,28.90,South,180,8.1,8.1,84,0.00,CLR,SKC,0.00,WeatherDisplay:10.37,2013-04-02 11:14:00,
2013-04-02 07:19:00,26.1,21.9,28.90,South,180,4.6,4.6,84,0.00,CLR,SKC,0.00,WeatherDisplay:10.37,2013-04-02 11:19:00,
2013-04-02 07:24:00,26.1,21.9,28.91,South,180,3.5,3.5,84,0.00,CLR,SKC,0.00,WeatherDisplay:10.37,2013-04-02 11:24:00,
2013-04-02 07:29:00,26.1,21.9,28.91,North,0,3.5,3.5,84,0.00,CLR,SKC,0.00,WeatherDisplay:10.37,2013-04-02 11:29:00,
2013-04-02 07:34:00,26.1,21.6,28.92,North,0,8.1,8.1,83,0.00,CLR,SKC,0.00,WeatherDisplay:10.37,2013-04-02 11:34:00,
2013-04-02 07:39:00,26.2,21.8,28.92,North,0,10.4,10.4,83,0.00,CLR,SKC,0.00,WeatherDisplay:10.37,2013-04-02 11:39:00,
2013-04-02 07:44:00,26.2,21.2,28.92,NNE,12,12.7,12.7,81,0.00,CLR,SKC,0.00,WeatherDisplay:10.37,2013-04-02 11:44:00,
2013-04-02 07:49:00,26.2,21.2,28.92,South,180,10.4,10.4,81,0.00,CLR,SKC,0.00,WeatherDisplay:10.37,2013-04-02 11:49:00,
2013-04-02 07:54:00,26.2,21.5,28.92,South,180,8.1,8.1,82,0.00,CLR,SKC,0.00,WeatherDisplay:10.37,2013-04-02 11:54:00,
2013-04-02 07:59:00,26.2,21.5,28.93,SE,135,8.1,8.1,82,0.00,CLR,SKC,0.00,WeatherDisplay:10.37,2013-04-02 11:59:00,
2013-04-02 08:04:00,26.2,21.5,28.93,SE,135,9.2,9.2,82,0.00,CLR,SKC,0.00,WeatherDisplay:10.37,2013-04-02 12:04:00,
2013-04-02 08:09:00,26.4,21.7,28.93,South,180,8.1,8.1,82,0.00,CLR,SKC,0.00,WeatherDisplay:10.37,2013-04-02 12:09:00,
2013-04-02 08:14:00,26.6,21.6,28.94,North,0,5.8,5.8,81,0.00,CLR,SKC,0.00,WeatherDisplay:10.37,2013-04-02 12:14:00,
2013-04-02 08:19:00,26.8,21.7,28.94,North,0,8.1,8.1,81,0.00,CLR,SKC,0.00,WeatherDisplay:10.37,2013-04-02 12:19:00,
2013-04-02 08:24:00,27.1,22.1,28.94,North,6,5.8,5.8,81,0.00,CLR,SKC,0.00,WeatherDisplay:10.37,2013-04-02 12:24:00,
2013-04-02 08:29:00,27.1,21.8,28.95,North,0,8.1,8.1,80,0.00,CLR,SKC,0.00,WeatherDisplay:10.37,2013-04-02 12:29:00,
2013-04-02 08:34:00,27.1,22.1,28.95,South,180,5.8,5.8,81,0.00,CLR,SKC,0.00,WeatherDisplay:10.37,2013-04-02 12:34:00,
2013-04-02 08:39:00,27.1,21.8,28.95,South,180,6.9,6.9,80,0.00,CLR,SKC,0.00,WeatherDisplay:10.37,2013-04-02 12:39:00,
2013-04-02 08:44:00,27.1,21.8,28.95,North,0,9.2,9.2,80,0.00,CLR,SKC,0.00,WeatherDisplay:10.37,2013-04-02 12:44:00,
2013-04-02 08:49:00,27.1,21.8,28.95,NNE,14,6.9,6.9,80,0.00,CLR,SKC,0.00,WeatherDisplay:10.37,2013-04-02 12:49:00,
2013-04-02 08:54:00,27.9,21.9,28.96,WNW,292,8.3,8.3,78,0.00,CLR,SKC,0.00,WeatherDisplay:10.37,2013-04-02 12:54:00,
2013-04-02 08:59:00,28.0,21.8,28.96,North,1,8.1,8.1,77,0.00,CLR,SKC,0.00,WeatherDisplay:10.37,2013-04-02 12:59:00,
2013-04-02 09:04:00,27.9,21.0,28.96,South,180,2.3,5.4,75,0.00,CLR,SKC,0.00,WeatherDisplay:10.37,2013-04-02 13:04:00,
2013-04-02 09:09:00,27.9,21.3,28.95,South,180,12.7,12.7,76,0.00,CLR,SKC,0.00,WeatherDisplay:10.37,2013-04-02 13:09:00,
2013-04-02 09:14:00,27.9,21.0,28.95,North,0,8.1,8.1,75,0.00,CLR,SKC,0.00,WeatherDisplay:10.37,2013-04-02 13:14:00,
2013-04-02 09:19:00,28.0,21.1,28.95,South,180,5.8,5.8,75,0.00,CLR,SKC,0.00,WeatherDisplay:10.37,2013-04-02 13:19:00,
2013-04-02 09:24:00,28.2,22.8,28.95,South,180,4.6,4.6,80,0.00,CLR,SKC,0.00,WeatherDisplay:10.37,2013-04-02 13:24:00,
2013-04-02 09:29:00,28.2,23.7,28.96,West,270,6.0,6.0,83,0.00,CLR,SKC,0.00,WeatherDisplay:10.37,2013-04-02 13:29:00,
2013-04-02 09:34:00,27.3,23.1,28.96,South,180,9.2,9.2,84,0.00,CLR,SKC,0.00,WeatherDisplay:10.37,2013-04-02 13:34:00,
2013-04-02 09:39:00,27.5,23.6,28.95,West,270,8.1,8.1,85,0.00,CLR,SKC,0.00,WeatherDisplay:10.37,2013-04-02 13:39:00,
2013-04-02 09:44:00,28.6,24.4,28.95,South,180,10.4,10.4,84,0.00,CLR,SKC,0.00,WeatherDisplay:10.37,2013-04-02 13:44:00,
2013-04-02 09:49:00,28.6,24.1,28.96,South,180,3.5,3.5,83,0.00,CLR,SKC,0.00,WeatherDisplay:10.37,2013-04-02 13:49:00,
2013-04-02 09:54:00,29.7,23.9,28.95,East,90,5.8,5.8,79,0.00,CLR,SKC,0.00,WeatherDisplay:10.37,2013-04-02 13:54:00,
2013-04-02 09:59:00,29.3,23.0,28.96,ESE,112,8.1,8.1,77,0.00,CLR,SKC,0.00,WeatherDisplay:10.37,2013-04-02 13:59:00,
2013-04-02 10:04:00,29.5,22.8,28.95,NNE,14,8.1,8.1,76,0.00,CLR,SKC,0.00,WeatherDisplay:10.37,2013-04-02 14:04:00,
2013-04-02 10:09:00,29.8,21.9,28.96,North,11,12.7,12.7,72,0.00,CLR,SKC,0.00,WeatherDisplay:10.37,2013-04-02 14:09:00,
2013-04-02 10:14:00,29.8,20.9,28.95,South,180,13.8,13.8,69,0.00,CLR,SKC,0.00,WeatherDisplay:10.37,2013-04-02 14:14:00,
2013-04-02 10:19:00,29.8,20.6,28.96,West,270,13.8,13.8,68,0.00,CLR,SKC,0.00,WeatherDisplay:10.37,2013-04-02 14:19:00,
2013-04-02 10:24:00,30.4,20.4,28.96,NNE,15,11.5,11.5,66,0.00,CLR,SKC,0.00,WeatherDisplay:10.37,2013-04-02 14:24:00,
2013-04-02 10:29:00,31.1,19.6,28.96,West,270,11.5,11.5,62,0.00,CLR,SKC,0.00,WeatherDisplay:10.37,2013-04-02 14:29:00,
2013-04-02 10:34:00,30.7,19.2,28.96,West,270,8.1,8.3,62,0.00,CLR,SKC,0.00,WeatherDisplay:10.37,2013-04-02 14:34:00,
2013-04-02 10:40:00,30.4,18.9,28.96,South,180,12.7,12.7,62,0.00,CLR,SKC,0.00,WeatherDisplay:10.37,2013-04-02 14:40:00,
2013-04-02 10:45:00,31.8,20.3,28.96,East,90,5.8,5.8,62,0.00,CLR,SKC,0.00,WeatherDisplay:10.37,2013-04-02 14:45:00,
2013-04-02 10:50:00,32.5,19.8,28.96,South,180,10.4,10.4,59,0.00,CLR,SKC,0.00,WeatherDisplay:10.37,2013-04-02 14:50:00,
2013-04-02 10:55:00,33.3,20.1,28.96,North,6,12.7,12.7,58,0.00,CLR,SKC,0.00,WeatherDisplay:10.37,2013-04-02 14:55:00,
2013-04-02 11:00:00,33.1,18.2,28.96,South,180,11.5,11.5,54,0.00,CLR,SKC,0.00,WeatherDisplay:10.37,2013-04-02 15:00:00,
2013-04-02 11:05:00,31.6,18.1,28.97,NW,315,16.1,16.1,57,0.00,CLR,SKC,0.00,WeatherDisplay:10.37,2013-04-02 15:05:00,
2013-04-02 11:10:00,33.3,21.3,28.97,South,180,12.7,12.7,61,0.00,CLR,SKC,0.00,WeatherDisplay:10.37,2013-04-02 15:10:00,
2013-04-02 11:15:00,33.6,20.0,28.96,South,180,8.1,8.1,57,0.00,CLR,SKC,0.00,WeatherDisplay:10.37,2013-04-02 15:15:00,
2013-04-02 11:20:00,33.1,20.3,28.97,SE,135,12.7,12.7,59,0.00,CLR,SKC,0.00,WeatherDisplay:10.37,2013-04-02 15:20:00,
2013-04-02 11:25:00,33.1,20.3,28.96,South,180,11.5,11.5,59,0.00,CLR,SKC,0.00,WeatherDisplay:10.37,2013-04-02 15:25:00,
2013-04-02 11:30:00,34.0,19.5,28.97,South,180,11.5,11.5,55,0.00,CLR,SKC,0.00,WeatherDisplay:10.37,2013-04-02 15:30:00,
2013-04-02 11:35:00,33.1,18.7,28.97,South,180,15.0,15.0,55,0.00,CLR,SKC,0.00,WeatherDisplay:10.37,2013-04-02 15:35:00,
2013-04-02 11:40:00,32.4,18.0,28.96,NW,315,17.3,17.3,55,0.00,CLR,SKC,0.00,WeatherDisplay:10.37,2013-04-02 15:40:00,
2013-04-02 11:45:00,33.6,18.7,28.97,North,8,15.2,15.2,54,0.00,CLR,SKC,0.00,WeatherDisplay:10.37,2013-04-02 15:45:00,
2013-04-02 11:50:00,33.8,19.3,28.97,South,180,12.7,12.7,55,0.00,CLR,SKC,0.00,WeatherDisplay:10.37,2013-04-02 15:50:00,
2013-04-02 11:55:00,34.3,20.7,28.96,WSW,248,16.1,16.1,57,0.00,CLR,SKC,0.00,WeatherDisplay:10.37,2013-04-02 15:55:00,
2013-04-02 12:00:00,34.0,19.1,28.97,West,270,11.5,11.5,54,0.00,CLR,SKC,0.00,WeatherDisplay:10.37,2013-04-02 16:00:00,
2013-04-02 12:05:00,34.2,18.8,28.96,NNW,338,8.1,8.1,53,0.00,CLR,SKC,0.00,WeatherDisplay:10.37,2013-04-02 16:05:00,
2013-04-02 12:10:00,34.3,18.5,28.96,NW,315,13.8,13.8,52,0.00,CLR,SKC,0.00,WeatherDisplay:10.37,2013-04-02 16:10:00,
2013-04-02 12:15:00,33.6,18.7,28.96,West,270,13.8,13.8,54,0.00,CLR,SKC,0.00,WeatherDisplay:10.37,2013-04-02 16:15:00,
2013-04-02 12:21:00,34.9,19.5,28.96,West,270,15.0,15.0,53,0.00,CLR,SKC,0.00,WeatherDisplay:10.37,2013-04-02 16:21:00,
2013-04-02 12:26:00,35.1,19.6,28.96,South,180,17.3,17.3,53,0.00,CLR,SKC,0.00,WeatherDisplay:10.37,2013-04-02 16:26:00,
2013-04-02 12:31:00,36.9,20.9,28.96,West,270,6.9,6.9,52,0.00,CLR,SKC,0.00,WeatherDisplay:10.37,2013-04-02 16:31:00,
2013-04-02 12:37:00,35.4,19.5,28.96,WNW,292,21.9,21.9,52,0.00,CLR,SKC,0.00,WeatherDisplay:10.37,2013-04-02 16:37:00,
2013-04-02 12:42:00,35.1,19.2,28.96,NW,315,19.6,19.6,52,0.00,CLR,SKC,0.00,WeatherDisplay:10.37,2013-04-02 16:42:00,
2013-04-02 12:47:00,35.6,19.7,28.96,South,180,10.4,10.4,52,0.00,CLR,SKC,0.00,WeatherDisplay:10.37,2013-04-02 16:47:00,
2013-04-02 12:52:00,35.8,19.9,28.96,South,180,8.1,8.1,52,0.00,CLR,SKC,0.00,WeatherDisplay:10.37,2013-04-02 16:52:00,
2013-04-02 12:57:00,36.1,20.2,28.96,NNE,13,9.2,9.2,52,0.00,CLR,SKC,0.00,WeatherDisplay:10.37,2013-04-02 16:57:00,
2013-04-02 13:02:00,37.2,21.2,28.96,South,180,8.1,8.1,52,0.00,CLR,SKC,0.00,WeatherDisplay:10.37,2013-04-02 17:02:00,
2013-04-02 13:07:00,37.8,21.2,28.95,NNW,338,12.7,12.7,51,0.00,CLR,SKC,0.00,WeatherDisplay:10.37,2013-04-02 17:07:00,
2013-04-02 13:13:00,36.5,19.6,28.95,NNE,16,17.3,17.3,50,0.00,CLR,SKC,0.00,WeatherDisplay:10.37,2013-04-02 17:13:00,
2013-04-02 13:18:00,35.6,18.8,28.95,South,180,17.3,17.3,50,0.00,CLR,SKC,0.00,WeatherDisplay:10.37,2013-04-02 17:18:00,
2013-04-02 13:23:00,35.2,18.9,28.95,West,270,19.6,19.6,51,0.00,CLR,SKC,0.00,WeatherDisplay:10.37,2013-04-02 17:23:00,
2013-04-02 13:28:00,35.1,19.2,28.95,North,1,15.9,15.9,52,0.00,CLR,SKC,0.00,WeatherDisplay:10.37,2013-04-02 17:28:00,
2013-04-02 13:33:00,35.4,19.1,28.95,West,270,17.3,17.3,51,0.00,CLR,SKC,0.00,WeatherDisplay:10.37,2013-04-02 17:33:00,
2013-04-02 13:38:00,36.3,20.4,28.94,West,270,18.4,18.4,52,0.00,CLR,SKC,0.00,WeatherDisplay:10.37,2013-04-02 17:38:00,
2013-04-02 13:43:00,35.1,18.7,28.94,South,180,12.7,12.7,51,0.00,CLR,SKC,0.00,WeatherDisplay:10.37,2013-04-02 17:43:00,
2013-04-02 13:49:00,35.4,18.6,28.94,North,8,12.7,12.7,50,0.00,CLR,SKC,0.00,WeatherDisplay:10.37,2013-04-02 17:49:00,
2013-04-02 13:54:00,35.4,19.1,28.94,NNE,14,17.3,17.3,51,0.00,CLR,SKC,0.00,WeatherDisplay:10.37,2013-04-02 17:54:00,
2013-04-02 13:59:00,36.5,20.1,28.94,North,0,10.4,10.4,51,0.00,CLR,SKC,0.00,WeatherDisplay:10.37,2013-04-02 17:59:00,
2013-04-02 14:04:00,36.9,19.9,28.94,North,8,16.1,16.1,50,0.00,CLR,SKC,0.00,WeatherDisplay:10.37,2013-04-02 18:04:00,
2013-04-02 14:09:00,35.1,18.7,28.94,NNE,16,17.3,17.3,51,0.00,CLR,SKC,0.00,WeatherDisplay:10.37,2013-04-02 18:09:00,
2013-04-02 14:14:00,34.7,18.4,28.94,North,0,18.4,18.4,51,0.00,CLR,SKC,0.00,WeatherDisplay:10.37,2013-04-02 18:14:00,
2013-04-02 14:19:00,34.5,17.8,28.94,North,0,16.1,16.1,50,0.00,CLR,SKC,0.00,WeatherDisplay:10.37,2013-04-02 18:19:00,
2013-04-02 14:24:00,37.6,21.1,28.94,West,270,9.2,9.2,51,0.00,CLR,SKC,0.00,WeatherDisplay:10.37,2013-04-02 18:24:00,
2013-04-02 14:29:00,38.1,19.6,28.94,South,180,17.3,17.3,47,0.00,CLR,SKC,0.00,WeatherDisplay:10.37,2013-04-02 18:29:00,
2013-04-02 14:34:00,37.9,18.5,28.94,WSW,248,12.7,12.7,45,0.00,CLR,SKC,0.00,WeatherDisplay:10.37,2013-04-02 18:34:00,
2013-04-02 14:39:00,37.8,19.8,28.94,South,180,20.7,20.7,48,0.00,CLR,SKC,0.00,WeatherDisplay:10.37,2013-04-02 18:39:00,
2013-04-02 14:44:00,37.9,20.0,28.94,SE,135,15.0,15.0,48,0.00,CLR,SKC,0.00,WeatherDisplay:10.37,2013-04-02 18:44:00,
2013-04-02 14:49:00,37.0,18.7,28.93,South,180,10.4,10.7,47,0.00,CLR,SKC,0.00,WeatherDisplay:10.37,2013-04-02 18:49:00,
2013-04-02 14:54:00,36.9,19.0,28.94,South,180,12.7,12.7,48,0.00,CLR,SKC,0.00,WeatherDisplay:10.37,2013-04-02 18:54:00,
2013-04-02 14:59:00,37.6,19.6,28.93,South,180,18.4,18.4,48,0.00,CLR,SKC,0.00,WeatherDisplay:10.37,2013-04-02 18:59:00,
2013-04-02 15:04:00,37.8,19.3,28.93,West,270,13.8,13.8,47,0.00,CLR,SKC,0.00,WeatherDisplay:10.37,2013-04-02 19:04:00,
2013-04-02 15:09:00,36.5,18.2,28.92,NW,315,15.0,15.0,47,0.00,CLR,SKC,0.00,WeatherDisplay:10.37,2013-04-02 19:09:00,
2013-04-02 15:14:00,37.6,19.6,28.92,NW,315,15.0,15.0,48,0.00,CLR,SKC,0.00,WeatherDisplay:10.37,2013-04-02 19:14:00,
2013-04-02 15:19:00,36.9,18.0,28.93,NNE,14,19.6,19.6,46,0.00,CLR,SKC,0.00,WeatherDisplay:10.37,2013-04-02 19:19:00,
2013-04-02 15:24:00,36.5,18.6,28.92,NW,315,16.1,16.1,48,0.00,CLR,SKC,0.00,WeatherDisplay:10.37,2013-04-02 19:24:00,
2013-04-02 15:29:00,36.5,18.2,28.93,West,270,18.4,18.4,47,0.00,CLR,SKC,0.00,WeatherDisplay:10.37,2013-04-02 19:29:00,
2013-04-02 15:34:00,37.6,19.6,28.92,North,8,13.8,13.8,48,0.00,CLR,SKC,0.00,WeatherDisplay:10.37,2013-04-02 19:34:00,
2013-04-02 15:39:00,36.7,18.3,28.92,North,0,18.4,18.4,47,0.00,CLR,SKC,0.00,WeatherDisplay:10.37,2013-04-02 19:39:00,
2013-04-02 15:44:00,37.0,19.1,28.92,West,270,12.7,12.7,48,0.00,CLR,SKC,0.00,WeatherDisplay:10.37,2013-04-02 19:44:00,
2013-04-02 15:49:00,37.0,18.1,28.92,NW,315,13.8,13.8,46,0.00,CLR,SKC,0.00,WeatherDisplay:10.37,2013-04-02 19:49:00,
2013-04-02 15:55:00,36.7,18.8,28.92,NNE,14,15.0,15.0,48,0.00,CLR,SKC,0.00,WeatherDisplay:10.37,2013-04-02 19:55:00,
2013-04-02 16:00:00,38.3,20.3,28.92,West,270,11.5,11.5,48,0.00,CLR,SKC,0.00,WeatherDisplay:10.37,2013-04-02 20:00:00,
2013-04-02 16:05:00,37.6,19.6,28.92,NNW,338,17.3,17.3,48,0.00,CLR,SKC,0.00,WeatherDisplay:10.37,2013-04-02 20:05:00,
2013-04-02 16:10:00,38.1,19.6,28.92,NNW,338,15.0,15.0,47,0.00,CLR,SKC,0.00,WeatherDisplay:10.37,2013-04-02 20:10:00,
2013-04-02 16:16:00,37.9,20.5,28.92,NW,315,13.8,13.8,49,0.00,CLR,SKC,0.00,WeatherDisplay:10.37,2013-04-02 20:16:00,
2013-04-02 16:21:00,37.6,19.6,28.92,North,0,20.7,20.7,48,0.00,CLR,SKC,0.00,WeatherDisplay:10.37,2013-04-02 20:21:00,
2013-04-02 16:26:00,36.9,19.0,28.92,North,10,15.2,15.2,48,0.00,CLR,SKC,0.00,WeatherDisplay:10.37,2013-04-02 20:26:00,
2013-04-02 16:32:00,36.5,19.1,28.92,South,180,15.0,15.0,49,0.00,CLR,SKC,0.00,WeatherDisplay:10.37,2013-04-02 20:32:00,
2013-04-02 16:37:00,36.1,19.7,28.92,West,270,11.5,11.5,51,0.00,CLR,SKC,0.00,WeatherDisplay:10.37,2013-04-02 20:37:00,
2013-04-02 16:42:00,36.9,19.9,28.92,South,180,10.4,10.4,50,0.00,CLR,SKC,0.00,WeatherDisplay:10.37,2013-04-02 20:42:00,
2013-04-02 16:48:00,38.1,20.1,28.92,South,180,20.7,20.7,48,0.00,CLR,SKC,0.00,WeatherDisplay:10.37,2013-04-02 20:48:00,
2013-04-02 16:53:00,37.6,19.6,28.92,North,8,12.7,12.7,48,0.00,CLR,SKC,0.00,WeatherDisplay:10.37,2013-04-02 20:53:00,
2013-04-02 16:58:00,36.7,19.3,28.92,South,180,23.0,23.0,49,0.00,CLR,SKC,0.00,WeatherDisplay:10.37,2013-04-02 20:58:00,
2013-04-02 17:03:00,37.4,20.0,28.92,NW,315,18.4,18.4,49,0.00,CLR,SKC,0.00,WeatherDisplay:10.37,2013-04-02 21:03:00,
2013-04-02 17:08:00,37.9,20.9,28.92,South,180,18.4,18.4,50,0.00,CLR,SKC,0.00,WeatherDisplay:10.37,2013-04-02 21:08:00,
2013-04-02 17:13:00,37.2,19.3,28.92,South,180,10.4,10.4,48,0.00,CLR,SKC,0.00,WeatherDisplay:10.37,2013-04-02 21:13:00,
2013-04-02 17:18:00,36.9,19.0,28.93,North,0,13.8,13.8,48,0.00,CLR,SKC,0.00,WeatherDisplay:10.37,2013-04-02 21:18:00,
2013-04-02 17:24:00,37.0,20.1,28.92,North,0,10.4,10.4,50,0.00,CLR,SKC,0.00,WeatherDisplay:10.37,2013-04-02 21:24:00,
2013-04-02 17:29:00,36.9,19.5,28.92,North,8,15.0,15.0,49,0.00,CLR,SKC,0.00,WeatherDisplay:10.37,2013-04-02 21:29:00,
2013-04-02 17:34:00,36.9,19.5,28.93,South,180,12.7,12.7,49,0.00,CLR,SKC,0.00,WeatherDisplay:10.37,2013-04-02 21:34:00,
2013-04-02 17:39:00,36.7,19.8,28.93,South,180,10.7,10.7,50,0.00,CLR,SKC,0.00,WeatherDisplay:10.37,2013-04-02 21:39:00,
2013-04-02 17:44:00,36.5,19.6,28.94,North,5,10.4,10.4,50,0.00,CLR,SKC,0.00,WeatherDisplay:10.37,2013-04-02 21:44:00,
2013-04-02 17:49:00,36.5,19.6,28.94,North,0,15.0,15.0,50,0.00,CLR,SKC,0.00,WeatherDisplay:10.37,2013-04-02 21:49:00,
2013-04-02 17:55:00,36.3,19.4,28.93,West,270,17.3,17.3,50,0.00,CLR,SKC,0.00,WeatherDisplay:10.37,2013-04-02 21:55:00,
2013-04-02 18:00:00,36.7,19.8,28.94,South,180,11.5,11.5,50,0.00,CLR,SKC,0.00,WeatherDisplay:10.37,2013-04-02 22:00:00,
2013-04-02 18:05:00,37.4,20.0,28.93,North,0,24.2,24.2,49,0.00,CLR,SKC,0.00,WeatherDisplay:10.37,2013-04-02 22:05:00,
2013-04-02 18:10:00,37.6,20.6,28.94,North,8,8.1,8.1,50,0.00,CLR,SKC,0.00,WeatherDisplay:10.37,2013-04-02 22:10:00,
2013-04-02 18:15:00,37.2,20.3,28.94,North,8,16.1,16.1,50,0.00,CLR,SKC,0.00,WeatherDisplay:10.37,2013-04-02 22:15:00,
2013-04-02 18:20:00,37.0,20.6,28.94,South,180,11.5,11.5,51,0.00,CLR,SKC,0.00,WeatherDisplay:10.37,2013-04-02 22:20:00,
2013-04-02 18:26:00,37.2,20.3,28.94,South,180,10.4,10.4,50,0.00,CLR,SKC,0.00,WeatherDisplay:10.37,2013-04-02 22:26:00,
2013-04-02 18:31:00,37.8,20.8,28.94,South,180,10.4,10.4,50,0.00,CLR,SKC,0.00,WeatherDisplay:10.37,2013-04-02 22:31:00,
2013-04-02 18:36:00,37.0,19.6,28.94,NNE,15,10.4,10.4,49,0.00,CLR,SKC,0.00,WeatherDisplay:10.37,2013-04-02 22:36:00,
2013-04-02 18:41:00,36.3,19.4,28.94,South,180,15.0,15.0,50,0.00,CLR,SKC,0.00,WeatherDisplay:10.37,2013-04-02 22:41:00,
2013-04-02 18:47:00,36.1,19.7,28.94,South,180,13.8,13.8,51,0.00,CLR,SKC,0.00,WeatherDisplay:10.37,2013-04-02 22:47:00,
2013-04-02 18:53:00,36.3,19.0,28.95,North,0,13.8,13.8,49,0.00,CLR,SKC,0.00,WeatherDisplay:10.37,2013-04-02 22:53:00,
2013-04-02 18:58:00,36.3,19.4,28.95,North,9,10.4,10.4,50,0.00,CLR,SKC,0.00,WeatherDisplay:10.37,2013-04-02 22:58:00,
2013-04-02 19:03:00,36.3,19.0,28.95,West,270,10.4,10.4,49,0.00,CLR,SKC,0.00,WeatherDisplay:10.37,2013-04-02 23:03:00,
2013-04-02 19:08:00,36.0,18.6,28.95,South,180,15.0,15.0,49,0.00,CLR,SKC,0.00,WeatherDisplay:10.37,2013-04-02 23:08:00,
2013-04-02 19:14:00,36.1,18.3,28.95,South,180,16.1,16.1,48,0.00,CLR,SKC,0.00,WeatherDisplay:10.37,2013-04-02 23:14:00,
2013-04-02 19:19:00,36.1,18.3,28.95,South,180,12.7,12.7,48,0.00,CLR,SKC,0.00,WeatherDisplay:10.37,2013-04-02 23:19:00,
2013-04-02 19:24:00,36.0,19.1,28.96,South,180,9.2,9.2,50,0.00,CLR,SKC,0.00,WeatherDisplay:10.37,2013-04-02 23:24:00,
2013-04-02 19:29:00,35.6,18.3,28.96,North,0,9.2,9.2,49,0.00,CLR,SKC,0.00,WeatherDisplay:10.37,2013-04-02 23:29:00,
2013-04-02 19:34:00,35.4,18.1,28.96,North,0,8.1,8.1,49,0.00,CLR,SKC,0.00,WeatherDisplay:10.37,2013-04-02 23:34:00,
2013-04-02 19:40:00,35.4,18.1,28.95,North,0,8.1,8.1,49,0.00,CLR,SKC,0.00,WeatherDisplay:10.37,2013-04-02 23:40:00,
2013-04-02 19:45:00,35.1,18.3,28.96,NNE,12,10.4,10.4,50,0.00,CLR,SKC,0.00,WeatherDisplay:10.37,2013-04-02 23:45:00,
2013-04-02 19:50:00,35.1,18.7,28.95,North,7,10.4,10.4,51,0.00,CLR,SKC,0.00,WeatherDisplay:10.37,2013-04-02 23:50:00,
2013-04-02 19:55:00,34.7,18.4,28.95,North,0,11.4,11.4,51,0.00,CLR,SKC,0.00,WeatherDisplay:10.37,2013-04-02 23:55:00,
2013-04-02 20:00:00,34.5,18.7,28.95,North,0,8.1,8.1,52,0.00,CLR,SKC,0.00,WeatherDisplay:10.37,2013-04-03 00:00:00,
2013-04-02 20:05:00,34.3,18.5,28.96,South,180,15.0,15.0,52,0.00,CLR,SKC,0.00,WeatherDisplay:10.37,2013-04-03 00:05:00,
2013-04-02 20:11:00,34.2,18.3,28.95,North,0,5.8,5.8,52,0.00,CLR,SKC,0.00,WeatherDisplay:10.37,2013-04-03 00:11:00,
2013-04-02 20:16:00,34.0,18.6,28.96,North,8,5.8,5.8,53,0.00,CLR,SKC,0.00,WeatherDisplay:10.37,2013-04-03 00:16:00,
2013-04-02 20:21:00,34.0,18.2,28.96,NW,315,8.1,8.1,52,0.00,CLR,SKC,0.00,WeatherDisplay:10.37,2013-04-03 00:21:00,
2013-04-02 20:26:00,34.0,18.2,28.96,North,1,8.1,8.1,52,0.00,CLR,SKC,0.00,WeatherDisplay:10.37,2013-04-03 00:26:00,
2013-04-02 20:31:00,33.8,18.0,28.96,WNW,292,3.5,3.5,52,0.00,CLR,SKC,0.00,WeatherDisplay:10.37,2013-04-03 00:31:00,
2013-04-02 20:36:00,33.6,17.8,28.97,North,0,8.1,8.1,52,0.00,CLR,SKC,0.00,WeatherDisplay:10.37,2013-04-03 00:36:00,
2013-04-02 20:42:00,33.6,17.8,28.97,North,8,8.1,8.1,52,0.00,CLR,SKC,0.00,WeatherDisplay:10.37,2013-04-03 00:42:00,
2013-04-02 20:47:00,33.3,18.0,28.97,NNE,15,4.6,4.6,53,0.00,CLR,SKC,0.00,WeatherDisplay:10.37,2013-04-03 00:47:00,
2013-04-02 20:52:00,33.3,18.0,28.97,North,0,4.6,4.6,53,0.00,CLR,SKC,0.00,WeatherDisplay:10.37,2013-04-03 00:52:00,
2013-04-02 20:57:00,33.1,17.8,28.96,South,180,3.5,3.5,53,0.00,CLR,SKC,0.00,WeatherDisplay:10.37,2013-04-03 00:57:00,
2013-04-02 21:02:00,33.1,17.8,28.97,North,0,5.8,5.8,53,0.00,CLR,SKC,0.00,WeatherDisplay:10.37,2013-04-03 01:02:00,
2013-04-02 21:08:00,33.1,17.8,28.98,North,0,8.1,8.1,53,0.00,CLR,SKC,0.00,WeatherDisplay:10.37,2013-04-03 01:08:00,
2013-04-02 21:13:00,33.1,17.8,28.98,South,180,4.6,4.6,53,0.00,CLR,SKC,0.00,WeatherDisplay:10.37,2013-04-03 01:13:00,
2013-04-02 21:18:00,33.1,17.8,28.98,North,0,9.2,9.2,53,0.00,CLR,SKC,0.00,WeatherDisplay:10.37,2013-04-03 01:18:00,
2013-04-02 21:23:00,32.9,18.1,28.98,South,180,3.5,3.5,54,0.00,CLR,SKC,0.00,WeatherDisplay:10.37,2013-04-03 01:23:00,
2013-04-02 21:28:00,32.7,17.5,28.98,South,180,3.5,3.5,53,0.00,CLR,SKC,0.00,WeatherDisplay:10.37,2013-04-03 01:28:00,
2013-04-02 21:34:00,32.5,17.3,28.98,South,180,8.1,8.1,53,0.00,CLR,SKC,0.00,WeatherDisplay:10.37,2013-04-03 01:34:00,
2013-04-02 21:39:00,32.5,17.7,28.98,NNE,22,4.6,4.6,54,0.00,CLR,SKC,0.00,WeatherDisplay:10.37,2013-04-03 01:39:00,
2013-04-02 21:44:00,32.5,17.3,28.98,South,180,4.6,4.6,53,0.00,CLR,SKC,0.00,WeatherDisplay:10.37,2013-04-03 01:44:00,
2013-04-02 21:49:00,32.5,17.3,28.98,South,180,5.8,5.8,53,0.00,CLR,SKC,0.00,WeatherDisplay:10.37,2013-04-03 01:49:00,
2013-04-02 21:54:00,32.5,17.3,28.98,South,180,4.6,4.6,53,0.00,CLR,SKC,0.00,WeatherDisplay:10.37,2013-04-03 01:54:00,
2013-04-02 21:59:00,32.4,17.6,28.98,South,180,4.6,4.6,54,0.00,CLR,SKC,0.00,WeatherDisplay:10.37,2013-04-03 01:59:00,
2013-04-02 22:04:00,32.2,17.4,28.98,South,180,5.8,5.8,54,0.00,CLR,SKC,0.00,WeatherDisplay:10.37,2013-04-03 02:04:00,
2013-04-02 22:09:00,32.2,17.4,28.98,South,180,3.5,3.5,54,0.00,CLR,SKC,0.00,WeatherDisplay:10.37,2013-04-03 02:09:00,
2013-04-02 22:14:00,32.2,17.4,28.98,NNE,22,5.8,5.8,54,0.00,CLR,SKC,0.00,WeatherDisplay:10.37,2013-04-03 02:14:00,
2013-04-02 22:19:00,32.0,17.2,28.98,South,180,5.8,5.8,54,0.00,CLR,SKC,0.00,WeatherDisplay:10.37,2013-04-03 02:19:00,
2013-04-02 22:24:00,32.2,17.4,28.98,North,0,4.6,4.6,54,0.00,CLR,SKC,0.00,WeatherDisplay:10.37,2013-04-03 02:24:00,
2013-04-02 22:29:00,32.2,16.9,28.98,South,180,5.8,5.8,53,0.00,CLR,SKC,0.00,WeatherDisplay:10.37,2013-04-03 02:29:00,
2013-04-02 22:34:00,32.2,17.4,28.99,North,0,3.8,3.8,54,0.00,CLR,SKC,0.00,WeatherDisplay:10.37,2013-04-03 02:34:00,
2013-04-02 22:39:00,32.2,17.4,28.99,North,0,2.3,2.3,54,0.00,CLR,SKC,0.00,WeatherDisplay:10.37,2013-04-03 02:39:00,
2013-04-02 22:44:00,31.8,17.5,28.99,South,180,3.5,3.5,55,0.00,CLR,SKC,0.00,WeatherDisplay:10.37,2013-04-03 02:44:00,
2013-04-02 22:49:00,31.6,17.3,28.99,South,180,3.5,3.5,55,0.00,CLR,SKC,0.00,WeatherDisplay:10.37,2013-04-03 02:49:00,
2013-04-02 22:54:00,31.8,17.5,28.99,South,180,3.5,3.5,55,0.00,CLR,SKC,0.00,WeatherDisplay:10.37,2013-04-03 02:54:00,
2013-04-02 22:59:00,31.6,17.3,28.99,South,180,3.5,3.5,55,0.00,CLR,SKC,0.00,WeatherDisplay:10.37,2013-04-03 02:59:00,
2013-04-02 23:04:00,31.6,17.3,28.99,South,180,3.5,3.5,55,0.00,CLR,SKC,0.00,WeatherDisplay:10.37,2013-04-03 03:04:00,
2013-04-02 23:09:00,31.5,17.1,28.98,South,180,3.5,3.5,55,0.00,CLR,SKC,0.00,WeatherDisplay:10.37,2013-04-03 03:09:00,
2013-04-02 23:14:00,31.5,17.1,28.98,South,180,3.5,3.5,55,0.00,CLR,SKC,0.00,WeatherDisplay:10.37,2013-04-03 03:14:00,
2013-04-02 23:19:00,31.5,17.1,28.98,SE,135,3.5,0.0,55,0.00,CLR,SKC,0.00,WeatherDisplay:10.37,2013-04-03 03:19:00,
2013-04-02 23:24:00,31.5,17.1,28.98,South,180,3.5,0.0,55,0.00,CLR,SKC,0.00,WeatherDisplay:10.37,2013-04-03 03:24:00,
2013-04-02 23:29:00,31.1,16.8,28.98,South,180,1.2,0.0,55,0.00,CLR,SKC,0.00,WeatherDisplay:10.37,2013-04-03 03:29:00,
2013-04-02 23:34:00,30.7,16.9,28.98,SE,135,1.2,0.0,56,0.00,CLR,SKC,0.00,WeatherDisplay:10.37,2013-04-03 03:34:00,
2013-04-02 23:39:00,30.6,16.7,28.98,SE,135,0.0,0.0,56,0.00,CLR,SKC,0.00,WeatherDisplay:10.37,2013-04-03 03:39:00,
2013-04-02 23:44:00,30.2,16.8,28.98,East,90,0.0,0.0,57,0.00,CLR,SKC,0.00,WeatherDisplay:10.37,2013-04-03 03:44:00,
2013-04-02 23:50:00,29.8,16.8,28.98,South,180,1.2,0.0,58,0.00,CLR,SKC,0.00,WeatherDisplay:10.37,2013-04-03 03:50:00,
2013-04-02 23:55:00,29.7,16.7,28.99,South,180,1.2,0.0,58,0.00,CLR,SKC,0.00,WeatherDisplay:10.37,2013-04-03 03:55:00,